Hlavní strana
METAR-TAF:

METAR-TAF

Letiště :

Gamèti, Severozápadní teritoria, Kanada

zeměpisná šířka: 64-06-58N, zeměpisná délka: 117-18-35W, výška: 221 m

Aktuální stav počasí

Zpráva byla vytvořena před 7 hodinami a 44 minutami, v 00:00 UTC
Severozápadní vítr 3 kt
Teplota 7°C
Vlhkost vzduchu 49%
Tlak 1002 hPa
Viditelnost: 24.1 km
Polojasno ve výšce 15000 ft
Oblačno až skoro zataženo ve výšce 21000 ft
Oblačno až skoro zataženo ve výšce 24000 ft

METAR: CYRA 240000Z 31003KT 15SM SCT150 BKN210 BKN240 07/M03 A2960 RMK AC3CI2CS2 8.6/1.6/0/0 LAST STFD OBS/NEXT 241400 UTC SLP038

Čas: 01:44 (07:44 UTC)

Předpověď počasí

Zpráva byla vytvořena před 13 hodinami a 6 minutami, v 18:38 UTC
Předpověď platná od 23 v 19 UTC do 23 v 24 UTC
vítr z různých směrů 3 kt
Viditelnost: 10 km
Skoro jasno ve výšce 7000 ft
Polojasno ve výšce 21000 ft

TAF: CYRA 231838Z 2319/2324 VRB03KT P6SM FEW070 SCT210 RMK NXT FCST WILL BE ISSUED AT 241545Z

Stav a předpovědi počasí z více než 4 000 letišť (zprávy METAR a TAF).

Červené a žluté tečky na mapě představují dostupné meteorologické stanice.

Když kurzor umístíte na tečku, zobrazí se název stanice.

Pak kliknutím zobrazíte stav a předpověď počasí.

Chcete-li změnit mapu, kliknutím na zelené tlačítko se znaménkem +mapu přiblížíte, kliknutím na zelené tlačítko se znaménkem – mapu oddálíte a kliknutím na zelené šipky přejdete na sousední mapy.


METAR-TAF: